Time;durP1;ratioP1;P1;durP2;ratioP2;P2;SDS_P1;SDS_P2;PMS_P1;PMS_P2;Temp;Humidity;BMP_temperature;BMP_pressure;BME280_temperature;BME280_humidity;BME280_pressure;Samples;Min_cycle;Max_cycle;Signal;HPM_P1;HPM_P2
2021/07/29 00:00:53;;;;;;;15.55;12.18;;;19.60;99.90;;;;;;4992774;28;20104;-85
2021/07/29 00:03:18;;;;;;;17.67;12.32;;;19.60;99.90;;;;;;4992713;28;20027;-84
2021/07/29 00:05:47;;;;;;;15.18;12.55;;;19.60;99.90;;;;;;4992765;28;20018;-85
2021/07/29 00:08:12;;;;;;;18.42;12.15;;;19.70;99.90;;;;;;4993041;28;20060;-85
2021/07/29 00:10:38;;;;;;;14.55;12.30;;;19.70;99.90;;;;;;4992375;28;20054;-85
2021/07/29 00:13:04;;;;;;;18.88;12.23;;;19.70;99.90;;;;;;4991232;28;20029;-85
2021/07/29 00:15:29;;;;;;;11.95;10.43;;;19.70;99.90;;;;;;4992456;28;20420;-85
2021/07/29 00:20:30;;;;;;;15.10;12.05;;;19.80;99.90;;;;;;4992890;28;20027;-85
2021/07/29 00:23:00;;;;;;;14.15;11.43;;;19.70;99.90;;;;;;4990860;28;20034;-85
2021/07/29 00:25:26;;;;;;;12.75;11.45;;;19.80;99.90;;;;;;4991062;28;20037;-86
2021/07/29 00:27:53;;;;;;;13.75;11.50;;;19.80;99.90;;;;;;4990977;28;20018;-85
2021/07/29 00:30:20;;;;;;;15.07;12.43;;;19.70;99.90;;;;;;4991446;28;20023;-86
2021/07/29 00:32:46;;;;;;;15.85;11.40;;;19.80;99.90;;;;;;4992595;28;20030;-85
2021/07/29 00:35:14;;;;;;;12.85;10.60;;;19.80;99.90;;;;;;4992255;28;20496;-85
2021/07/29 00:37:46;;;;;;;14.35;10.88;;;19.80;99.90;;;;;;4990617;28;20048;-85
2021/07/29 00:40:12;;;;;;;;;;;19.70;99.90;;;;;;4972933;28;20484;-85
2021/07/29 00:42:38;;;;;;;14.77;11.52;;;19.70;99.90;;;;;;4987910;28;19918;-85
2021/07/29 00:45:04;;;;;;;15.25;11.52;;;19.60;99.90;;;;;;4972617;28;20077;-85
2021/07/29 00:47:31;;;;;;;12.20;10.50;;;19.60;99.90;;;;;;4972947;28;20140;-85
2021/07/29 00:49:57;;;;;;;13.48;11.50;;;19.60;99.90;;;;;;4987790;28;20069;-85
2021/07/29 00:52:23;;;;;;;16.52;12.48;;;19.60;99.90;;;;;;4971590;28;20023;-84
2021/07/29 00:54:53;;;;;;;14.55;11.88;;;19.60;99.90;;;;;;5005365;28;20387;-85
2021/07/29 00:57:22;;;;;;;13.70;12.18;;;19.60;99.90;;;;;;4992296;28;20061;-85
2021/07/29 00:59:49;;;;;;;21.02;12.52;;;19.60;99.90;;;;;;4991873;28;20023;-84
2021/07/29 01:02:15;;;;;;;15.65;11.95;;;19.60;99.90;;;;;;4992173;28;20027;-84
2021/07/29 01:04:41;;;;;;;15.13;13.27;;;19.60;99.90;;;;;;4990453;28;20025;-84
2021/07/29 01:07:06;;;;;;;14.45;12.48;;;19.60;99.90;;;;;;4991558;28;20037;-84
2021/07/29 01:09:32;;;;;;;15.38;12.63;;;19.60;99.90;;;;;;4990974;28;20367;-84
2021/07/29 01:11:58;;;;;;;14.32;12.88;;;19.60;99.90;;;;;;4990385;28;20041;-84
2021/07/29 01:14:23;;;;;;;19.83;13.25;;;19.50;99.90;;;;;;4991011;28;20109;-84
2021/07/29 01:16:49;;;;;;;13.68;12.02;;;19.50;99.90;;;;;;4990631;28;20120;-84
2021/07/29 01:19:15;;;;;;;15.13;13.23;;;19.50;99.90;;;;;;4991689;28;20031;-84
2021/07/29 01:21:41;;;;;;;15.05;12.15;;;19.40;99.90;;;;;;4991917;28;20470;-85
2021/07/29 01:24:07;;;;;;;13.27;11.98;;;19.40;99.90;;;;;;4973981;28;20027;-85
2021/07/29 01:26:33;;;;;;;14.48;12.13;;;19.30;99.90;;;;;;4972011;28;20058;-85
2021/07/29 01:29:00;;;;;;;15.88;12.18;;;19.40;99.90;;;;;;4987446;28;20026;-85
2021/07/29 01:31:26;;;;;;;15.98;12.32;;;19.30;99.90;;;;;;4986927;28;20027;-85
2021/07/29 01:33:52;;;;;;;13.93;11.55;;;19.30;99.90;;;;;;4971984;28;20052;-86
2021/07/29 01:36:18;;;;;;;14.82;12.90;;;19.30;99.90;;;;;;4987101;28;20069;-86
2021/07/29 01:38:44;;;;;;;14.70;12.10;;;19.20;99.90;;;;;;4971802;28;20449;-85
2021/07/29 01:41:09;;;;;;;17.63;13.90;;;19.20;99.90;;;;;;4971800;28;20034;-85
2021/07/29 01:43:35;;;;;;;14.82;12.43;;;19.10;99.90;;;;;;4972040;28;20080;-85
2021/07/29 01:46:01;;;;;;;15.88;13.25;;;19.00;99.90;;;;;;4971642;28;20087;-85
2021/07/29 01:48:27;;;;;;;14.48;12.43;;;19.00;99.90;;;;;;4971754;28;20483;-85
2021/07/29 01:50:53;;;;;;;14.95;13.38;;;19.00;99.90;;;;;;4970365;28;20469;-84
2021/07/29 01:53:19;;;;;;;15.32;11.57;;;19.00;99.90;;;;;;4971755;28;20029;-84
2021/07/29 01:55:48;;;;;;;15.20;12.35;;;19.00;99.90;;;;;;4986474;28;20407;-85
2021/07/29 01:58:15;;;;;;;17.58;14.25;;;19.10;99.90;;;;;;4971843;28;20019;-85
2021/07/29 02:00:43;;;;;;;14.80;13.15;;;19.10;99.90;;;;;;4971547;28;20023;-85
2021/07/29 02:03:09;;;;;;;15.40;13.70;;;19.10;99.90;;;;;;4973165;28;20038;-85
2021/07/29 02:05:35;;;;;;;14.82;13.23;;;19.10;99.90;;;;;;4991017;28;20022;-85
2021/07/29 02:08:00;;;;;;;16.33;13.77;;;19.10;99.90;;;;;;4990699;28;20027;-84
2021/07/29 02:10:27;;;;;;;14.82;13.10;;;19.20;99.90;;;;;;4990841;28;20481;-85
2021/07/29 02:12:54;;;;;;;16.50;14.02;;;19.10;99.90;;;;;;4990778;28;20391;-84
2021/07/29 02:15:20;;;;;;;16.50;14.40;;;19.10;99.90;;;;;;4989169;28;20061;-85
2021/07/29 02:17:46;;;;;;;18.73;14.07;;;19.10;99.90;;;;;;4989955;28;20081;-85
2021/07/29 02:20:13;;;;;;;17.90;14.43;;;19.10;99.90;;;;;;4988927;28;20023;-85
2021/07/29 02:22:39;;;;;;;20.45;14.82;;;19.20;99.90;;;;;;4982906;28;20125;-84
2021/07/29 02:25:05;;;;;;;14.68;13.10;;;19.30;99.90;;;;;;4985506;28;20438;-85
2021/07/29 02:27:32;;;;;;;15.15;13.30;;;19.30;99.90;;;;;;4970504;28;20484;-84
2021/07/29 02:29:58;;;;;;;14.75;12.70;;;19.20;99.90;;;;;;4969196;28;20114;-84
2021/07/29 02:32:24;;;;;;;16.63;13.23;;;19.30;99.90;;;;;;4970496;28;20105;-84
2021/07/29 02:34:50;;;;;;;14.00;12.57;;;19.20;99.90;;;;;;4974128;28;20552;-84
2021/07/29 02:37:16;;;;;;;16.05;13.73;;;19.10;99.90;;;;;;4990422;28;20070;-85
2021/07/29 02:39:42;;;;;;;15.73;12.20;;;19.10;99.90;;;;;;4992061;28;20057;-84
2021/07/29 02:42:08;;;;;;;18.17;15.38;;;19.20;99.90;;;;;;4994070;28;20030;-84
2021/07/29 02:44:34;;;;;;;14.90;13.30;;;19.10;99.90;;;;;;4994047;28;20395;-84
2021/07/29 02:47:00;;;;;;;16.58;14.55;;;19.10;99.90;;;;;;4993678;28;20030;-84
2021/07/29 02:49:26;;;;;;;16.67;14.02;;;19.10;99.90;;;;;;4993849;28;20476;-84
2021/07/29 02:51:52;;;;;;;15.38;13.27;;;19.10;99.90;;;;;;4993713;28;20022;-84
2021/07/29 02:54:17;;;;;;;17.20;14.05;;;19.10;99.90;;;;;;4975079;28;20071;-85
2021/07/29 02:56:43;;;;;;;21.02;15.77;;;19.00;99.90;;;;;;4973173;28;20108;-85
2021/07/29 02:59:09;;;;;;;24.52;14.43;;;19.00;99.90;;;;;;4974287;28;20098;-84
2021/07/29 03:01:34;;;;;;;23.48;14.77;;;18.90;99.90;;;;;;4974168;28;20472;-85
2021/07/29 03:04:00;;;;;;;17.95;14.82;;;18.90;99.90;;;;;;4974245;28;20058;-85
2021/07/29 03:06:26;;;;;;;18.33;16.00;;;18.80;99.90;;;;;;4974423;28;20059;-84
2021/07/29 03:08:53;;;;;;;20.67;16.52;;;18.80;99.90;;;;;;4989010;28;20113;-84
2021/07/29 03:11:19;;;;;;;21.58;17.40;;;18.80;99.90;;;;;;4989497;28;20089;-84
2021/07/29 03:13:45;;;;;;;21.02;17.60;;;18.70;99.90;;;;;;4974386;28;20147;-84
2021/07/29 03:16:11;;;;;;;19.70;16.48;;;18.70;99.90;;;;;;4972974;28;20049;-84
2021/07/29 03:18:36;;;;;;;19.90;16.45;;;18.60;99.90;;;;;;4973064;28;20019;-84
2021/07/29 03:21:02;;;;;;;19.25;15.45;;;18.60;99.90;;;;;;4988745;28;20069;-84
2021/07/29 03:23:28;;;;;;;20.95;16.95;;;18.60;99.90;;;;;;4987661;28;20066;-84
2021/07/29 03:25:54;;;;;;;18.05;14.45;;;18.60;99.90;;;;;;4993184;28;20030;-84
2021/07/29 03:28:20;;;;;;;19.00;16.77;;;18.60;99.90;;;;;;4993275;28;20446;-85
2021/07/29 03:30:47;;;;;;;16.92;15.05;;;18.50;99.90;;;;;;4982315;28;20099;-84
2021/07/29 03:33:13;;;;;;;19.13;15.52;;;18.50;99.90;;;;;;4973782;28;20065;-84
2021/07/29 03:35:42;;;;;;;41.45;17.02;;;18.40;99.90;;;;;;4988640;28;20063;-84
2021/07/29 03:38:08;;;;;;;19.58;15.40;;;18.40;99.90;;;;;;4988785;28;20095;-84
2021/07/29 03:40:35;;;;;;;30.15;18.42;;;18.30;99.90;;;;;;4988918;28;20531;-84
2021/07/29 03:43:04;;;;;;;46.78;16.88;;;18.30;99.90;;;;;;4973552;28;20031;-84
2021/07/29 03:45:31;;;;;;;55.70;17.58;;;18.30;99.90;;;;;;4972370;28;20388;-84
2021/07/29 03:47:58;;;;;;;78.30;19.77;;;18.30;99.90;;;;;;4973119;28;20481;-84
2021/07/29 03:50:24;;;;;;;100.90;19.77;;;18.20;99.90;;;;;;4988207;28;20015;-84
2021/07/29 03:52:49;;;;;;;110.82;19.55;;;18.20;99.90;;;;;;4974698;28;20037;-84
2021/07/29 03:55:15;;;;;;;72.90;17.95;;;18.10;99.90;;;;;;4973339;28;20191;-84
2021/07/29 03:57:41;;;;;;;41.75;18.90;;;18.10;99.90;;;;;;4973257;28;20027;-83
2021/07/29 04:00:07;;;;;;;23.25;14.82;;;18.10;99.90;;;;;;4988632;28;20468;-83
2021/07/29 04:02:34;;;;;;;23.33;17.85;;;18.20;99.90;;;;;;4973229;28;20046;-83
2021/07/29 04:05:00;;;;;;;21.38;16.70;;;18.20;99.90;;;;;;4988250;28;20018;-83
2021/07/29 04:07:25;;;;;;;24.30;15.50;;;18.20;99.90;;;;;;4987841;28;20033;-83
2021/07/29 04:09:51;;;;;;;22.13;15.35;;;18.30;99.90;;;;;;4973163;28;20019;-84
2021/07/29 04:12:17;;;;;;;19.23;15.07;;;18.30;99.90;;;;;;4988090;28;20027;-83
2021/07/29 04:14:43;;;;;;;23.13;16.23;;;18.30;99.90;;;;;;4973162;28;20041;-84
2021/07/29 04:17:09;;;;;;;23.52;17.90;;;18.30;99.90;;;;;;4972926;28;20102;-83
2021/07/29 04:19:35;;;;;;;24.25;17.45;;;18.20;99.90;;;;;;4973137;28;20029;-84
2021/07/29 04:22:03;;;;;;;23.70;17.90;;;18.30;99.90;;;;;;4987832;28;20026;-84
2021/07/29 04:24:29;;;;;;;23.65;19.20;;;18.30;99.90;;;;;;4973030;28;20027;-84
2021/07/29 04:26:57;;;;;;;24.63;18.98;;;18.30;99.90;;;;;;4972879;28;20031;-83
2021/07/29 04:29:23;;;;;;;24.08;19.13;;;18.30;99.90;;;;;;4972924;28;20035;-83
2021/07/29 04:31:53;;;;;;;28.02;18.90;;;18.40;99.90;;;;;;4972809;28;20027;-83
2021/07/29 04:34:19;;;;;;;26.60;19.50;;;18.40;99.90;;;;;;4987741;28;20023;-84
2021/07/29 04:36:45;;;;;;;26.67;18.48;;;18.50;99.90;;;;;;4972663;28;20061;-84
2021/07/29 04:39:11;;;;;;;30.73;19.92;;;18.60;99.90;;;;;;4988020;28;20049;-84
2021/07/29 04:41:41;;;;;;;23.85;17.73;;;18.70;99.90;;;;;;4987758;28;20030;-83
2021/07/29 04:44:08;;;;;;;26.58;17.40;;;18.80;99.90;;;;;;4971514;28;20472;-83
2021/07/29 04:46:35;;;;;;;27.23;19.83;;;18.80;99.90;;;;;;4987524;28;20037;-83
2021/07/29 04:49:06;;;;;;;21.40;16.67;;;18.70;99.90;;;;;;4972565;28;20031;-82
2021/07/29 04:51:36;;;;;;;24.70;18.77;;;18.80;99.90;;;;;;4988034;28;20499;-83
2021/07/29 04:54:02;;;;;;;24.42;18.75;;;18.90;99.90;;;;;;4991790;28;20365;-84
2021/07/29 04:56:27;;;;;;;28.90;21.85;;;18.90;99.90;;;;;;4991569;28;20113;-83
2021/07/29 04:58:53;;;;;;;27.25;19.55;;;19.00;99.90;;;;;;4989594;28;20113;-83
2021/07/29 05:01:20;;;;;;;22.38;17.50;;;19.10;99.90;;;;;;4991060;28;20026;-83
2021/07/29 05:03:46;;;;;;;26.40;19.60;;;19.20;99.90;;;;;;4990484;28;20075;-84
2021/07/29 05:06:12;;;;;;;24.30;18.40;;;19.30;99.90;;;;;;4991730;28;20034;-84
2021/07/29 05:08:41;;;;;;;23.70;18.20;;;19.40;99.90;;;;;;4990715;28;20053;-84
2021/07/29 05:11:07;;;;;;;21.23;16.63;;;19.40;99.90;;;;;;4991429;28;20054;-83
2021/07/29 05:13:32;;;;;;;19.98;15.65;;;19.30;99.90;;;;;;4991643;28;20065;-83
2021/07/29 05:15:59;;;;;;;22.48;16.08;;;19.30;99.90;;;;;;4990082;28;20073;-83
2021/07/29 05:18:25;;;;;;;23.95;16.13;;;19.20;99.90;;;;;;4990301;28;20018;-84
2021/07/29 05:20:50;;;;;;;21.27;15.40;;;19.10;99.90;;;;;;4990563;28;20373;-83
2021/07/29 05:23:16;;;;;;;19.48;16.17;;;19.10;99.90;;;;;;4982969;28;20473;-83
2021/07/29 05:25:42;;;;;;;18.25;15.20;;;19.10;99.90;;;;;;4991080;28;20027;-83
2021/07/29 05:28:08;;;;;;;21.33;14.75;;;19.10;99.90;;;;;;4989614;28;20480;-83
2021/07/29 05:30:36;;;;;;;18.38;14.45;;;19.20;99.90;;;;;;4989830;28;20491;-85
2021/07/29 05:33:04;;;;;;;19.20;14.55;;;19.20;99.90;;;;;;4991181;28;20026;-83
2021/07/29 05:35:30;;;;;;;19.10;13.00;;;19.20;99.90;;;;;;4991133;28;20039;-83
2021/07/29 05:37:56;;;;;;;16.60;12.77;;;19.30;99.90;;;;;;4977343;28;20142;-82
2021/07/29 05:40:22;;;;;;;14.70;11.63;;;19.30;99.90;;;;;;4971923;28;20023;-84
2021/07/29 05:42:47;;;;;;;15.50;12.60;;;19.30;99.90;;;;;;4986902;28;20145;-83
2021/07/29 05:45:13;;;;;;;17.55;13.00;;;19.20;99.90;;;;;;4986879;28;20023;-83
2021/07/29 05:47:38;;;;;;;15.68;12.65;;;19.40;99.90;;;;;;4971702;28;20022;-83
2021/07/29 05:50:04;;;;;;;15.35;12.52;;;19.30;99.90;;;;;;4971624;28;20027;-84
2021/07/29 05:52:30;;;;;;;16.48;11.98;;;19.20;99.90;;;;;;4981038;28;20091;-82
2021/07/29 05:54:56;;;;;;;16.48;12.77;;;19.20;99.90;;;;;;4990488;28;20064;-83
2021/07/29 05:57:21;;;;;;;15.00;13.32;;;19.20;99.90;;;;;;4989906;28;20158;-83
2021/07/29 05:59:49;;;;;;;15.18;11.60;;;19.10;99.90;;;;;;4990959;28;20054;-84
2021/07/29 06:02:14;;;;;;;18.10;13.48;;;19.30;99.90;;;;;;4989947;28;20095;-84
2021/07/29 06:04:40;;;;;;;16.27;12.00;;;19.30;99.90;;;;;;4990810;28;20387;-84
2021/07/29 06:07:05;;;;;;;12.80;11.50;;;19.40;99.90;;;;;;4990981;28;20057;-84
2021/07/29 06:09:31;;;;;;;13.68;11.65;;;19.60;99.90;;;;;;4989449;28;20018;-83
2021/07/29 06:11:57;;;;;;;17.05;12.85;;;19.70;99.90;;;;;;4990251;28;20034;-84
2021/07/29 06:14:23;;;;;;;14.63;12.20;;;19.70;99.90;;;;;;4989047;28;20036;-84
2021/07/29 06:16:50;;;;;;;12.77;11.05;;;19.70;99.90;;;;;;4989533;28;20066;-84
2021/07/29 06:19:28;;;;;;;18.70;10.90;;;19.80;99.90;;;;;;4989690;28;20031;-84
2021/07/29 06:21:54;;;;;;;14.10;10.20;;;20.00;99.90;;;;;;4970219;28;20033;-84
2021/07/29 06:24:20;;;;;;;11.20;9.38;;;20.10;99.90;;;;;;4969899;28;20027;-83
2021/07/29 06:26:45;;;;;;;13.15;10.07;;;20.20;99.90;;;;;;4970009;28;20038;-83
2021/07/29 06:29:11;;;;;;;12.82;9.00;;;20.20;99.90;;;;;;4970163;28;20484;-84
2021/07/29 06:31:37;;;;;;;12.00;9.05;;;20.30;99.90;;;;;;4985353;28;20080;-83
2021/07/29 06:34:02;;;;;;;13.32;9.27;;;20.10;99.90;;;;;;4977812;28;20060;-82
2021/07/29 06:36:28;;;;;;;11.90;9.48;;;20.20;99.90;;;;;;4988933;28;20122;-83
2021/07/29 06:38:53;;;;;;;9.45;8.07;;;20.20;99.90;;;;;;4987480;28;20486;-82
2021/07/29 06:41:19;;;;;;;9.40;8.48;;;20.30;99.90;;;;;;4988787;28;20098;-84
2021/07/29 06:43:45;;;;;;;28.73;9.38;;;20.50;99.90;;;;;;4987253;28;20034;-83
2021/07/29 06:46:10;;;;;;;10.27;8.70;;;20.60;99.90;;;;;;4988160;28;20421;-83
2021/07/29 06:48:36;;;;;;;10.05;9.13;;;20.70;99.90;;;;;;4988590;28;20551;-84
2021/07/29 06:51:03;;;;;;;13.30;8.15;;;20.80;99.90;;;;;;4989250;28;20041;-84
2021/07/29 06:53:29;;;;;;;10.65;8.77;;;21.00;99.90;;;;;;4990125;28;20383;-84
2021/07/29 06:55:58;;;;;;;9.05;8.10;;;21.00;99.90;;;;;;4991030;28;20030;-83
2021/07/29 06:58:23;;;;;;;14.18;8.77;;;21.30;99.90;;;;;;4988567;28;20117;-83
2021/07/29 07:00:49;;;;;;;8.65;7.75;;;21.40;99.90;;;;;;4989448;28;20586;-84
2021/07/29 07:03:15;;;;;;;7.93;7.00;;;21.40;99.90;;;;;;4982812;28;20075;-84
2021/07/29 07:05:46;;;;;;;10.55;6.97;;;21.30;99.90;;;;;;4979713;28;20097;-83
2021/07/29 07:08:16;;;;;;;9.20;7.70;;;21.00;99.90;;;;;;4981187;28;20498;-83
2021/07/29 07:10:41;;;;;;;8.57;7.25;;;20.80;99.90;;;;;;4979025;28;20027;-84
2021/07/29 07:13:07;;;;;;;10.95;8.15;;;20.60;99.90;;;;;;4988139;28;20039;-83
2021/07/29 07:15:33;;;;;;;9.20;6.78;;;20.60;99.90;;;;;;4988401;28;20052;-82
2021/07/29 07:17:59;;;;;;;6.53;5.93;;;20.80;99.90;;;;;;4988360;28;20506;-82
2021/07/29 07:20:25;;;;;;;7.88;7.07;;;21.00;99.90;;;;;;4988243;28;20383;-83
2021/07/29 07:22:53;;;;;;;10.27;6.47;;;20.90;99.90;;;;;;4981594;28;20031;-83
2021/07/29 07:25:19;;;;;;;9.02;7.45;;;21.00;99.90;;;;;;4981799;28;20023;-83
2021/07/29 07:27:45;;;;;;;8.40;7.60;;;21.40;99.90;;;;;;4982328;28;20109;-83
2021/07/29 07:30:11;;;;;;;7.40;6.28;;;21.40;99.90;;;;;;4986778;28;20073;-83
2021/07/29 07:32:37;;;;;;;7.10;6.32;;;21.30;99.90;;;;;;4991920;28;20042;-82
2021/07/29 07:35:04;;;;;;;7.00;5.95;;;21.40;99.90;;;;;;4991657;28;20018;-83
2021/07/29 07:37:30;;;;;;;6.47;5.82;;;21.40;99.90;;;;;;4992032;28;20445;-83
2021/07/29 07:39:56;;;;;;;7.38;6.63;;;21.60;99.90;;;;;;4991056;28;20026;-82
2021/07/29 07:42:22;;;;;;;9.02;7.20;;;21.60;99.90;;;;;;4992650;28;20042;-82
2021/07/29 07:44:52;;;;;;;7.38;5.85;;;21.70;99.90;;;;;;4992039;28;20067;-83
2021/07/29 07:47:18;;;;;;;7.43;6.63;;;21.90;99.90;;;;;;4988968;28;20027;-77
2021/07/29 07:49:44;;;;;;;8.68;6.80;;;22.50;99.90;;;;;;4973488;28;20029;-81
2021/07/29 07:52:09;;;;;;;7.85;6.50;;;22.50;97.30;;;;;;4980020;28;20031;-80
2021/07/29 07:54:36;;;;;;;7.18;6.55;;;22.30;97.20;;;;;;4992787;28;20030;-80
2021/07/29 07:57:06;;;;;;;7.70;7.00;;;22.10;96.10;;;;;;4991480;28;20030;-80
2021/07/29 07:59:38;;;;;;;9.65;7.65;;;22.20;95.80;;;;;;4992670;28;20068;-81
2021/07/29 08:02:05;;;;;;;7.85;7.05;;;22.20;93.70;;;;;;4971788;28;20102;-80
2021/07/29 08:04:31;;;;;;;11.10;6.80;;;22.20;98.60;;;;;;4970627;28;20035;-81
2021/07/29 08:06:57;;;;;;;7.78;6.97;;;22.30;99.50;;;;;;4971691;28;20030;-80
2021/07/29 08:09:23;;;;;;;8.07;7.28;;;22.40;94.00;;;;;;4969745;28;20400;-80
2021/07/29 08:11:49;;;;;;;8.25;7.38;;;22.80;97.20;;;;;;4971539;28;20031;-79
2021/07/29 08:14:14;;;;;;;8.70;6.90;;;23.10;91.90;;;;;;4986454;28;20508;-79
2021/07/29 08:16:40;;;;;;;10.05;8.43;;;23.40;90.70;;;;;;4987716;28;20049;-80
2021/07/29 08:19:06;;;;;;;8.40;7.47;;;23.50;82.90;;;;;;4971745;28;20043;-81
2021/07/29 08:21:32;;;;;;;7.72;6.90;;;23.30;84.50;;;;;;4973614;28;20495;-79
2021/07/29 08:23:58;;;;;;;7.32;6.20;;;23.20;86.00;;;;;;4990585;28;20046;-79
2021/07/29 08:26:26;;;;;;;8.80;6.40;;;23.40;86.50;;;;;;4989408;28;20022;-80
2021/07/29 08:28:52;;;;;;;6.30;5.70;;;23.70;82.40;;;;;;4989127;28;20492;-81
2021/07/29 08:31:18;;;;;;;6.65;5.95;;;23.80;79.30;;;;;;4985793;28;20439;-79
2021/07/29 08:33:47;;;;;;;6.35;5.45;;;23.90;78.80;;;;;;4988588;28;20042;-81
2021/07/29 08:36:17;;;;;;;7.55;6.13;;;23.60;80.70;;;;;;4983059;28;20042;-81
2021/07/29 08:38:44;;;;;;;6.20;5.38;;;23.80;82.20;;;;;;4968361;28;20070;-80
2021/07/29 08:41:10;;;;;;;8.55;5.85;;;23.90;76.90;;;;;;4974725;28;20018;-81
2021/07/29 08:43:36;;;;;;;7.47;5.18;;;23.90;75.60;;;;;;4987648;28;20035;-80
2021/07/29 08:46:04;;;;;;;6.35;5.63;;;24.10;71.80;;;;;;4983976;28;20110;-81
2021/07/29 08:48:32;;;;;;;8.05;5.60;;;24.10;76.60;;;;;;4996850;28;20046;-80
2021/07/29 08:50:58;;;;;;;7.78;5.72;;;23.90;77.30;;;;;;4988242;28;20539;-81
2021/07/29 08:53:24;;;;;;;5.68;4.78;;;23.90;79.10;;;;;;4989113;28;20038;-81
2021/07/29 08:55:54;;;;;;;4.43;4.03;;;23.90;76.20;;;;;;4981080;28;20034;-81
2021/07/29 08:58:20;;;;;;;6.50;4.55;;;24.00;70.40;;;;;;4982173;28;20046;-80
2021/07/29 09:01:01;;;;;;;4.85;4.38;;;24.10;68.80;;;;;;4979501;28;20056;-81
2021/07/29 09:03:27;;;;;;;4.60;4.20;;;24.40;68.50;;;;;;4985864;28;20034;-81
2021/07/29 09:06:05;;;;;;;4.60;4.20;;;24.60;71.80;;;;;;4987603;28;20063;-82
2021/07/29 09:08:54;;;;;;;6.65;4.90;;;24.60;70.60;;;;;;4989163;28;20042;-82
2021/07/29 09:11:37;;;;;;;4.18;3.67;;;24.70;67.50;;;;;;4987947;28;20421;-81
2021/07/29 09:14:14;;;;;;;4.65;3.97;;;24.70;66.70;;;;;;4988694;28;20080;-82
2021/07/29 09:17:04;;;;;;;5.38;3.80;;;24.10;64.90;;;;;;4973178;28;20034;-81
2021/07/29 09:19:47;;;;;;;4.32;3.78;;;24.10;66.90;;;;;;4987528;28;20050;-81
2021/07/29 09:22:18;;;;;;;4.95;3.63;;;24.40;65.70;;;;;;4989928;28;20450;-80
2021/07/29 09:25:01;;;;;;;7.60;4.45;;;24.70;64.70;;;;;;4989426;28;20038;-81
2021/07/29 09:27:47;;;;;;;;;;;25.00;68.80;;;;;;4988272;28;20121;-82
2021/07/29 09:30:17;;;;;;;5.30;4.38;;;24.90;67.90;;;;;;4989775;28;19912;-80
2021/07/29 09:33:03;;;;;;;5.85;4.40;;;25.00;69.70;;;;;;4971676;28;20023;-80
2021/07/29 09:35:32;;;;;;;6.50;4.68;;;25.10;67.50;;;;;;4985082;28;20034;-81
2021/07/29 09:38:03;;;;;;;6.28;4.75;;;25.50;67.00;;;;;;4987362;28;20038;-81
2021/07/29 09:40:41;;;;;;;6.18;4.50;;;25.70;63.40;;;;;;4987804;28;20031;-81
2021/07/29 09:43:13;;;;;;;13.52;5.30;;;25.60;62.00;;;;;;4988816;28;20033;-80
2021/07/29 09:45:39;;;;;;;5.90;5.10;;;26.00;64.80;;;;;;4991145;28;20035;-81
2021/07/29 09:48:08;;;;;;;7.70;5.15;;;26.20;63.30;;;;;;4968517;28;20023;-81
2021/07/29 09:50:35;;;;;;;10.43;5.35;;;25.80;60.80;;;;;;4966384;28;20011;-82
2021/07/29 09:53:02;;;;;;;6.68;5.45;;;25.30;62.00;;;;;;4968695;28;20023;-80
2021/07/29 09:55:29;;;;;;;8.60;6.13;;;25.30;62.90;;;;;;4967060;28;20031;-79
2021/07/29 09:57:55;;;;;;;7.50;5.68;;;25.40;63.30;;;;;;4969610;28;20027;-80
2021/07/29 10:00:20;;;;;;;9.95;6.40;;;25.50;65.40;;;;;;4983445;28;20073;-82
2021/07/29 10:02:49;;;;;;;14.27;7.03;;;25.70;64.60;;;;;;4987927;28;20081;-81
2021/07/29 10:05:18;;;;;;;10.15;7.28;;;25.60;64.30;;;;;;4974872;28;20062;-81
2021/07/29 10:07:48;;;;;;;9.93;5.90;;;25.70;63.30;;;;;;4985007;28;20019;-80
2021/07/29 10:10:25;;;;;;;7.93;6.50;;;25.80;62.70;;;;;;4978087;28;20125;-81
2021/07/29 10:12:52;;;;;;;9.32;6.00;;;25.80;60.80;;;;;;4976602;28;20485;-84
2021/07/29 10:15:41;;;;;;;6.03;4.55;;;25.90;63.50;;;;;;4971987;28;20042;-82
2021/07/29 10:18:09;;;;;;;7.60;5.05;;;26.00;60.80;;;;;;4972403;28;20027;-83
2021/07/29 10:20:35;;;;;;;6.88;5.47;;;26.10;61.00;;;;;;4974994;28;20042;-83
2021/07/29 10:23:13;;;;;;;7.07;5.35;;;25.90;57.80;;;;;;4989129;28;20030;-81
2021/07/29 10:26:02;;;;;;;6.10;5.45;;;25.80;57.20;;;;;;4988081;28;20026;-81
2021/07/29 10:28:35;;;;;;;10.20;6.40;;;26.00;59.30;;;;;;4987076;28;20041;-81
2021/07/29 10:31:01;;;;;;;4.68;4.28;;;26.10;58.80;;;;;;4986904;28;20023;-81
2021/07/29 10:33:28;;;;;;;7.57;5.90;;;25.80;54.90;;;;;;4971703;28;20037;-81
2021/07/29 10:35:55;;;;;;;13.15;8.52;;;25.90;57.60;;;;;;4987688;28;20030;-81
2021/07/29 10:38:39;;;;;;;9.63;6.60;;;25.80;58.70;;;;;;4987271;28;20498;-81
2021/07/29 10:41:23;;;;;;;7.45;5.90;;;25.90;58.90;;;;;;4988125;28;20064;-81
2021/07/29 10:43:49;;;;;;;8.35;6.05;;;25.80;57.40;;;;;;4988513;28;20036;-81
2021/07/29 10:46:15;;;;;;;8.82;5.63;;;25.60;57.90;;;;;;4986646;28;20026;-82
2021/07/29 10:48:44;;;;;;;8.38;6.32;;;25.90;57.30;;;;;;4989147;28;20364;-82
2021/07/29 10:51:21;;;;;;;9.95;6.43;;;26.00;57.70;;;;;;4988826;28;20117;-81
2021/07/29 10:53:50;;;;;;;7.47;6.18;;;26.10;56.60;;;;;;4989313;28;20027;-82
2021/07/29 10:56:22;;;;;;;7.97;6.05;;;26.10;56.30;;;;;;4988992;28;20528;-81
2021/07/29 10:58:50;;;;;;;7.00;5.07;;;26.40;57.70;;;;;;4991433;28;20476;-81
2021/07/29 11:01:16;;;;;;;9.02;5.85;;;26.50;56.80;;;;;;4993528;28;20026;-81
2021/07/29 11:03:53;;;;;;;6.38;5.63;;;26.50;56.10;;;;;;4992348;28;20160;-81
2021/07/29 11:06:38;;;;;;;7.28;5.68;;;26.50;55.60;;;;;;4993687;28;20027;-82
2021/07/29 11:09:18;;;;;;;14.35;6.97;;;26.80;57.50;;;;;;4992695;28;20034;-81
2021/07/29 11:11:46;;;;;;;18.13;7.22;;;26.80;57.10;;;;;;4992537;28;20029;-81
2021/07/29 11:14:13;;;;;;;11.32;5.93;;;26.80;55.60;;;;;;4993008;28;20015;-82
2021/07/29 11:16:39;;;;;;;9.82;6.25;;;27.10;55.30;;;;;;4972762;28;20035;-81
2021/07/29 11:19:06;;;;;;;11.23;7.05;;;27.10;56.10;;;;;;4973027;28;20224;-82
2021/07/29 11:21:33;;;;;;;12.55;8.15;;;26.80;54.40;;;;;;4972707;28;20018;-81
2021/07/29 11:23:59;;;;;;;12.05;6.95;;;26.60;54.00;;;;;;4984347;28;20026;-81
2021/07/29 11:26:26;;;;;;;11.80;7.85;;;26.20;53.60;;;;;;4991273;28;20470;-81
2021/07/29 11:29:09;;;;;;;12.98;8.23;;;26.30;54.40;;;;;;4991975;28;20072;-81
2021/07/29 11:31:36;;;;;;;13.98;7.50;;;26.50;55.50;;;;;;4993285;28;20087;-82
2021/07/29 11:34:02;;;;;;;13.95;8.02;;;26.50;53.00;;;;;;4993133;28;20046;-81
2021/07/29 11:36:29;;;;;;;12.70;7.53;;;26.20;52.40;;;;;;4992924;28;20042;-81
2021/07/29 11:39:13;;;;;;;10.60;6.78;;;26.40;53.60;;;;;;4993005;28;20030;-81
2021/07/29 11:41:53;;;;;;;8.20;5.70;;;26.50;54.20;;;;;;4992201;28;20471;-81
2021/07/29 11:44:20;;;;;;;10.93;6.13;;;26.80;54.30;;;;;;4991066;28;20061;-81
2021/07/29 11:46:58;;;;;;;10.23;6.35;;;27.10;55.90;;;;;;4991694;28;20018;-81
2021/07/29 11:49:24;;;;;;;10.60;7.15;;;27.50;54.30;;;;;;4992014;28;20031;-82
2021/07/29 11:52:06;;;;;;;16.75;8.30;;;27.50;54.10;;;;;;4991472;28;20096;-82
2021/07/29 11:54:32;;;;;;;10.67;7.47;;;27.60;52.70;;;;;;4991714;28;20030;-81
2021/07/29 11:56:59;;;;;;;11.60;6.80;;;27.60;53.50;;;;;;4993090;28;20437;-81
2021/07/29 11:59:25;;;;;;;7.70;4.85;;;27.80;53.00;;;;;;4991555;28;20046;-82
2021/07/29 12:01:52;;;;;;;5.65;4.85;;;27.60;49.70;;;;;;4991588;28;20476;-82
2021/07/29 12:04:19;;;;;;;6.82;4.22;;;27.70;49.50;;;;;;4993074;28;20021;-82
2021/07/29 12:06:44;;;;;;;5.53;3.92;;;27.30;50.40;;;;;;4992685;28;20030;-82
2021/07/29 12:09:12;;;;;;;5.63;4.47;;;27.30;50.40;;;;;;4992319;28;20038;-82
2021/07/29 12:11:38;;;;;;;6.18;4.60;;;27.30;51.30;;;;;;4992645;28;20533;-81
2021/07/29 12:14:04;;;;;;;7.70;5.20;;;27.30;51.10;;;;;;4977778;28;20035;-82
2021/07/29 12:16:46;;;;;;;5.68;4.88;;;27.30;52.10;;;;;;4973176;28;20054;-82
2021/07/29 12:19:12;;;;;;;8.65;5.65;;;27.40;52.40;;;;;;4973108;28;20030;-82
2021/07/29 12:21:38;;;;;;;10.30;4.57;;;27.70;52.90;;;;;;4972193;28;20030;-82
2021/07/29 12:24:04;;;;;;;4.30;3.75;;;27.70;50.30;;;;;;4973268;28;20031;-82
2021/07/29 12:26:30;;;;;;;5.35;4.13;;;27.80;50.50;;;;;;4972943;28;20039;-82
2021/07/29 12:28:55;;;;;;;5.35;3.75;;;27.80;50.60;;;;;;4984101;28;20558;-82
2021/07/29 12:31:21;;;;;;;4.75;4.22;;;27.70;49.80;;;;;;4990994;28;20030;-82
2021/07/29 12:33:51;;;;;;;5.53;4.63;;;27.80;49.90;;;;;;4991030;28;20031;-82
2021/07/29 12:36:18;;;;;;;8.93;4.18;;;27.80;51.70;;;;;;4991058;28;20034;-82
2021/07/29 12:38:43;;;;;;;11.02;6.30;;;27.80;50.60;;;;;;4989594;28;20038;-82
2021/07/29 12:41:09;;;;;;;9.45;5.43;;;28.00;50.70;;;;;;4990596;28;20387;-82